• Join FlightAware (Why Join?)
  • Login
  • US Flag 
Rudolph Flight #1: Scheduled 
07:27PM EST


 

Airport Tracker/Info


-or-


 

Live Flight TrackerFlight Track Log ✈ SWA149 ✈ 30-Jun-2013 ✈ KMCO - KBDL

Flight Track Log - Related Links

Times and Time Zones

All times are in EDT time to prevent confusion due to time zone crossing. See the SWA149 flight status page for this flight to view local times or setup timezone preferences in your user account.

Time Position Orientation Groundspeed Altitude Reporting Facility
EDT Latitude Longitude Course Direction KTS MPH feet Rate Location/Type
09:53PM 28.4167 -81.3000 147° Southeast 153 176 500  Level Orlando TRACON
09:54PM 28.3500 -81.2500 147° Southeast 211 243 3,900 2,580 Climbing Orlando TRACON
09:55PM 28.2833 -81.2000 147° Southeast 290 334 7,300 2,640 Climbing Orlando TRACON
09:57PM 28.3758 -81.1467 27° Northeast 310 357 10,900 2,580 Climbing Jacksonville Center
09:58PM 28.4681 -81.1758 344° North 328 377 13,900 2,760 Climbing Jacksonville Center
09:59PM 28.5689 -81.2119 343° North 348 400 16,500 2,640 Climbing Jacksonville Center
10:00PM 28.6717 -81.2481 343° North 372 428 19,200 2,460 Climbing Jacksonville Center
10:01PM 28.7783 -81.2819 344° North 390 449 21,500 2,160 Climbing Jacksonville Center
10:02PM 28.8894 -81.3203 343° North 401 461 23,600 1,860 Climbing Jacksonville Center
10:03PM 29.0086 -81.3328 355° North 422 486 25,300 1,740 Climbing Jacksonville Center
10:04PM 29.1339 -81.3283 North 442 509 27,100 1,740 Climbing Jacksonville Center
10:05PM 29.2611 -81.3217 North 448 516 28,800 1,500 Climbing Jacksonville Center
10:06PM 29.3947 -81.3169 North 463 533 30,200 1,380 Climbing Jacksonville Center
10:07PM 29.5136 -81.3128 North 472 543 31,600 1,500 Climbing Jacksonville Center
10:08PM 29.6469 -81.3083 North 477 549 33,300 1,560 Climbing Jacksonville Center
10:09PM 29.7786 -81.3014 North 477 549 34,800 1,380 Climbing Jacksonville Center
10:10PM 29.9142 -81.2967 North 477 549 36,100 1,080 Climbing Jacksonville Center
10:11PM 30.0475 -81.2847 North 477 549 37,000 420 Climbing Jacksonville Center
10:12PM 30.1764 -81.2369 18° North 477 549 37,000  Level Jacksonville Center
10:13PM 30.3072 -81.1819 20° North 482 555 37,000  Level Jacksonville Center
10:14PM 30.4339 -81.1267 21° North 482 555 37,000  Level Jacksonville Center
10:15PM 30.5603 -81.0711 21° North 482 555 37,000  Level Jacksonville Center
10:16PM 30.6911 -81.0181 19° North 487 560 37,000  Level Jacksonville Center
10:17PM 30.8178 -80.9622 21° North 487 560 37,000  Level Jacksonville Center
10:18PM 30.9442 -80.9064 21° North 487 560 37,000  Level Jacksonville Center
10:19PM 31.0728 -80.8528 20° North 487 560 37,000  Level Jacksonville Center
10:20PM 31.1972 -80.7989 20° North 487 560 37,000  Level Jacksonville Center
10:21PM 31.3214 -80.7403 22° Northeast 487 560 37,000  Level Jacksonville Center
10:22PM 31.4458 -80.6886 20° North 481 554 37,000  Level Jacksonville Center
10:23PM 31.5722 -80.6297 22° Northeast 481 554 37,000  Level Jacksonville Center
10:24PM 31.7131 -80.5700 20° North 481 554 37,000  Level Jacksonville Center
10:25PM 31.8269 -80.5208 20° North 487 560 37,000  Level Jacksonville Center
10:26PM 31.9656 -80.4558 22° Northeast 486 559 37,000  Level Jacksonville Center
10:27PM 32.0897 -80.4011 20° North 491 565 37,000  Level Jacksonville Center
10:28PM 32.2203 -80.3411 21° North 483 556 37,000  Level Jacksonville Center
10:29PM 32.3464 -80.2861 20° North 483 556 37,000  Level Jacksonville Center
10:30PM 32.4725 -80.2283 21° North 483 556 37,000  Level Jacksonville Center
10:31PM 32.6008 -80.1728 20° North 483 556 37,000  Level Jacksonville Center
10:32PM 32.7225 -80.1122 23° Northeast 483 556 37,000  Level Jacksonville Center
10:33PM 32.8508 -80.0539 21° North 483 556 37,000  Level Jacksonville Center
10:34PM 32.9722 -79.9758 28° Northeast 483 556 37,000  Level Jacksonville Center
10:35PM 33.0914 -79.8950 30° Northeast 483 556 37,000  Level Jacksonville Center
10:36PM 33.2061 -79.8092 32° Northeast 483 556 37,000  Level Jacksonville Center
10:37PM 33.3208 -79.7258 31° Northeast 483 556 37,000  Level Jacksonville Center
10:38PM 33.4356 -79.6419 31° Northeast 478 550 37,000  Level Jacksonville Center
10:39PM 33.5483 -79.5581 32° Northeast 478 550 37,000  Level Jacksonville Center
10:40PM 33.6628 -79.4739 31° Northeast 478 550 37,000  Level Jacksonville Center
10:41PM 33.7733 -79.3947 31° Northeast 470 541 37,000  Level Jacksonville Center
10:42PM 33.8836 -79.3128 32° Northeast 470 541 37,000  Level Jacksonville Center
10:43PM 33.9981 -79.2281 32° Northeast 470 541 37,000  Level Jacksonville Center
10:44PM 34.1144 -79.1403 32° Northeast 470 541 37,000  Level Jacksonville Center
10:45PM 34.2289 -79.0575 31° Northeast 470 541 37,000  Level Jacksonville Center
10:47PM 34.4133 -78.9200 32° Northeast 482 555 37,000  Level Washington Center
10:47PM 34.5392 -78.8242 32° Northeast 487 560 37,000  Level Washington Center
10:49PM 34.6436 -78.7375 34° Northeast 492 566 37,000  Level Washington Center
10:49PM 34.7736 -78.6414 31° Northeast 492 566 37,000  Level Washington Center
10:51PM 34.8736 -78.5617 33° Northeast 487 560 37,000  Level Washington Center
10:51PM 34.9906 -78.4719 32° Northeast 487 560 37,000  Level Washington Center
10:52PM 35.1031 -78.3847 32° Northeast 487 560 37,000  Level Washington Center
10:54PM 35.2306 -78.2847 33° Northeast 492 566 37,000 180 Level Washington Center
10:54PM 35.3475 -78.1944 32° Northeast 492 566 37,400 840 Climbing Washington Center
10:55PM 35.4664 -78.1014 33° Northeast 492 566 38,700 780 Climbing Washington Center
10:56PM 35.5828 -78.0106 32° Northeast 492 566 39,000 120 Climbing Washington Center
10:58PM 35.6994 -77.9219 32° Northeast 492 566 39,000  Level Washington Center
10:58PM 35.8139 -77.8333 32° Northeast 487 560 39,000  Level Washington Center
10:59PM 35.9281 -77.7417 33° Northeast 487 560 39,000  Level Washington Center
11:00PM 36.0425 -77.6469 34° Northeast 492 566 39,000  Level Washington Center
11:01PM 36.1506 -77.5444 37° Northeast 492 566 39,000  Level Washington Center
11:02PM 36.2417 -77.4592 37° Northeast 476 548 39,000  Level Washington Center
11:03PM 36.3497 -77.3558 38° Northeast 471 542 39,000  Level Washington Center
11:05PM 36.4594 -77.2550 36° Northeast 471 542 39,000  Level Washington Center
11:05PM 36.5653 -77.1514 38° Northeast 477 549 39,000  Level Washington Center
11:06PM 36.6750 -77.0500 37° Northeast 482 555 39,000  Level Washington Center
11:07PM 36.7825 -76.9483 37° Northeast 482 555 39,000  Level Washington Center
11:08PM 36.8942 -76.8464 36° Northeast 487 560 39,000  Level Washington Center
11:09PM 37.0039 -76.7492 35° Northeast 487 560 39,000  Level Washington Center
11:11PM 37.1111 -76.6492 37° Northeast 482 555 39,000  Level Washington Center
11:11PM 37.2350 -76.5361 36° Northeast 482 555 39,000  Level Washington Center
11:12PM 37.3483 -76.4436 33° Northeast 482 555 39,000  Level Washington Center
11:13PM 37.4597 -76.3481 34° Northeast 482 555 39,000  Level Washington Center
11:14PM 37.5708 -76.2519 34° Northeast 482 555 39,000  Level Washington Center
11:16PM 37.6817 -76.1558 34° Northeast 482 555 39,000  Level Washington Center
11:16PM 37.7947 -76.0569 35° Northeast 482 555 39,000  Level Washington Center
11:17PM 37.9056 -75.9603 35° Northeast 493 567 39,000  Level Washington Center
11:18PM 38.0186 -75.8606 35° Northeast 493 567 39,000  Level Washington Center
11:20PM 38.1292 -75.7633 35° Northeast 493 567 39,000  Level Washington Center
11:20PM 38.2439 -75.6631 34° Northeast 493 567 39,000  Level Washington Center
11:21PM 38.3461 -75.5733 35° Northeast 493 567 39,000  Level Washington Center
11:22PM 38.4586 -75.4750 34° Northeast 493 567 39,000  Level Washington Center
11:23PM 38.5733 -75.3767 34° Northeast 493 567 39,000  Level Washington Center
11:25PM 38.6836 -75.2753 36° Northeast 488 562 39,000 -60 Level Washington Center
11:26PM 38.7978 -75.1733 35° Northeast 488 562 38,900 -600 Descending Washington Center
11:26PM 38.9100 -75.0742 35° Northeast 488 562 37,900 -960 Descending Washington Center
11:27PM 39.0222 -74.9692 36° Northeast 488 562 37,000 -480 Descending Washington Center
11:28PM 39.1342 -74.8664 35° Northeast 488 562 37,000  Level Washington Center
11:30PM 39.3594 -74.6617 35° Northeast 488 562 37,000  Level New York Center
11:32PM 39.4906 -74.5369 36° Northeast 488 562 37,000 -120 Level New York Center
11:33PM 39.5939 -74.4400 36° Northeast 499 574 36,800 -1,440 Descending New York Center
11:34PM 39.7053 -74.3381 35° Northeast 499 574 34,100 -2,820 Descending New York Center
11:35PM 39.8189 -74.2303 36° Northeast 499 574 31,200 -2,700 Descending New York Center
11:36PM 39.9303 -74.1275 35° Northeast 494 568 28,800 -2,400 Descending New York Center
11:37PM 40.0397 -74.0244 36° Northeast 494 568 26,500 -1,920 Descending New York Center
11:38PM 40.1444 -73.9233 36° Northeast 483 556 25,000 -780 Descending New York Center
11:39PM 40.2492 -73.8275 35° Northeast 472 543 25,000 -600 Level New York Center
11:41PM 40.4750 -73.6050 37° Northeast 466 536 23,300 -840 Descending Boston Center
11:42PM 40.5550 -73.5272 36° Northeast 461 531 22,500 -1,020 Descending Boston Center
11:43PM 40.6747 -73.4142 36° Northeast 451 519 21,300 -1,380 Descending Boston Center
11:44PM 40.7525 -73.3442 34° Northeast 440 506 19,800 -1,440 Descending Boston Center
11:45PM 40.8556 -73.2331 39° Northeast 415 478 18,500 -1,200 Descending Boston Center
11:46PM 40.9394 -73.1381 41° Northeast 401 461 17,500 -900 Descending Boston Center
11:47PM 41.0233 -73.0369 42° Northeast 396 456 16,600 -1,020 Descending Boston Center
11:48PM 41.1219 -72.9194 42° Northeast 391 450 15,300 -1,500 Descending Boston Center
11:49PM 41.2036 -72.8264 41° Northeast 391 450 13,700 -1,860 Descending Boston Center
11:50PM 41.2808 -72.7356 41° Northeast 380 437 11,600 -1,860 Descending Boston Center
11:51PM 41.3706 -72.6944 19° North 352 405 10,000 -840 Descending Boston Center
11:52PM 41.4728 -72.6950 360° North 347 399 10,000 -600 Level Boston Center
11:53PM 41.5581 -72.6925 North 331 381 8,900 -1,260 Descending Boston Center
11:54PM 41.6436 -72.6900 North 311 358 7,500 -1,380 Descending Boston Center
11:55PM 41.7269 -72.6906 360° North 299 344 6,200 -1,260 Descending Boston Center
11:56PM 41.8000 -72.6878 North 293 337 5,000 -600 Descending Boston Center
11:57PM 41.8772 -72.6297 29° Northeast 268 308 5,000 -360 Level Boston Center
11:58PM 41.9211 -72.5711 45° Northeast 249 287 4,300 -1,020 Descending Boston Center
11:59PM 41.9731 -72.4958 47° Northeast 241 277 3,000 -660 Descending Boston Center
12:00AM 42.0128 -72.4542 38° Northeast 222 255 3,000  Level Boston Center
12:01AM 42.0522 -72.4906 326° Northwest 158 182 3,000 -300 Level Boston Center
12:02AM 42.0397 -72.5519 255° West 144 166 2,500 -600 Descending Boston Center
12:03AM 42.0128 -72.5911 227° Southwest 149 171 1,900 -660 Descending Boston Center
12:04AM 41.9792 -72.6328 223° Southwest 132 152 1,100 -720 Descending Boston Center